sensor_id;sensor_type;location;lat;lon;timestamp;P1;durP1;ratioP1;P2;durP2;ratioP2
28455;SDS011;15682;56.742;38.866;2023-09-19T00:00:43;7.6;;;1.8;;
28455;SDS011;15682;56.742;38.866;2023-09-19T00:02:43;3.2;;;1.5;;
28455;SDS011;15682;56.742;38.866;2023-09-19T00:04:43;6.1;;;1.5;;
28455;SDS011;15682;56.742;38.866;2023-09-19T00:06:43;2.6;;;1.3;;
28455;SDS011;15682;56.742;38.866;2023-09-19T00:08:43;6.3;;;1.7;;
28455;SDS011;15682;56.742;38.866;2023-09-19T00:10:43;3.6;;;1.7;;
28455;SDS011;15682;56.742;38.866;2023-09-19T00:12:43;5.2;;;1.7;;
28455;SDS011;15682;56.742;38.866;2023-09-19T00:14:43;4.9;;;1.8;;
28455;SDS011;15682;56.742;38.866;2023-09-19T00:16:43;4.2;;;1.5;;
28455;SDS011;15682;56.742;38.866;2023-09-19T00:18:43;8.7;;;2.2;;
28455;SDS011;15682;56.742;38.866;2023-09-19T00:20:44;3.1;;;1.6;;
28455;SDS011;15682;56.742;38.866;2023-09-19T00:22:44;4.8;;;2.1;;
28455;SDS011;15682;56.742;38.866;2023-09-19T00:24:44;4.9;;;2.2;;
28455;SDS011;15682;56.742;38.866;2023-09-19T00:26:44;4.3;;;2.0;;
28455;SDS011;15682;56.742;38.866;2023-09-19T00:28:44;6.8;;;1.5;;
28455;SDS011;15682;56.742;38.866;2023-09-19T00:30:44;4.1;;;1.8;;
28455;SDS011;15682;56.742;38.866;2023-09-19T00:32:44;6.3;;;2.2;;
28455;SDS011;15682;56.742;38.866;2023-09-19T00:34:44;4.5;;;1.9;;
28455;SDS011;15682;56.742;38.866;2023-09-19T00:36:44;5.1;;;1.9;;
28455;SDS011;15682;56.742;38.866;2023-09-19T00:38:44;4.2;;;1.8;;
28455;SDS011;15682;56.742;38.866;2023-09-19T00:40:44;6.3;;;1.9;;
28455;SDS011;15682;56.742;38.866;2023-09-19T00:42:45;6.4;;;2.1;;
28455;SDS011;15682;56.742;38.866;2023-09-19T00:44:44;5.0;;;2.0;;
28455;SDS011;15682;56.742;38.866;2023-09-19T00:46:45;5.8;;;1.8;;
28455;SDS011;15682;56.742;38.866;2023-09-19T00:48:45;6.9;;;2.0;;
28455;SDS011;15682;56.742;38.866;2023-09-19T00:50:45;7.3;;;2.8;;
28455;SDS011;15682;56.742;38.866;2023-09-19T00:52:46;6.1;;;2.8;;
28455;SDS011;15682;56.742;38.866;2023-09-19T00:54:45;7.7;;;2.8;;
28455;SDS011;15682;56.742;38.866;2023-09-19T00:56:45;8.2;;;2.7;;
28455;SDS011;15682;56.742;38.866;2023-09-19T00:58:45;5.3;;;2.5;;
28455;SDS011;15682;56.742;38.866;2023-09-19T01:00:46;4.5;;;2.8;;
28455;SDS011;15682;56.742;38.866;2023-09-19T01:02:45;6.8;;;3.2;;
28455;SDS011;15682;56.742;38.866;2023-09-19T01:04:45;9.6;;;3.1;;
28455;SDS011;15682;56.742;38.866;2023-09-19T01:06:45;6.3;;;2.6;;
28455;SDS011;15682;56.742;38.866;2023-09-19T01:08:45;4.2;;;2.4;;
28455;SDS011;15682;56.742;38.866;2023-09-19T01:10:48;4.0;;;2.2;;
28455;SDS011;15682;56.742;38.866;2023-09-19T01:12:48;5.5;;;2.3;;
28455;SDS011;15682;56.742;38.866;2023-09-19T01:14:48;4.6;;;2.1;;
28455;SDS011;15682;56.742;38.866;2023-09-19T01:16:48;8.2;;;2.3;;
28455;SDS011;15682;56.742;38.866;2023-09-19T01:18:47;7.1;;;2.2;;
28455;SDS011;15682;56.742;38.866;2023-09-19T01:20:50;4.9;;;2.2;;
28455;SDS011;15682;56.742;38.866;2023-09-19T01:22:48;7.6;;;2.2;;
28455;SDS011;15682;56.742;38.866;2023-09-19T01:24:55;5.8;;;2.0;;
28455;SDS011;15682;56.742;38.866;2023-09-19T01:26:55;5.5;;;2.4;;
28455;SDS011;15682;56.742;38.866;2023-09-19T01:28:51;4.9;;;2.7;;
28455;SDS011;15682;56.742;38.866;2023-09-19T01:30:46;8.4;;;3.5;;
28455;SDS011;15682;56.742;38.866;2023-09-19T01:32:47;8.4;;;3.8;;
28455;SDS011;15682;56.742;38.866;2023-09-19T01:34:47;7.0;;;3.4;;
28455;SDS011;15682;56.742;38.866;2023-09-19T01:36:46;7.2;;;3.3;;
28455;SDS011;15682;56.742;38.866;2023-09-19T01:38:47;4.7;;;3.0;;
28455;SDS011;15682;56.742;38.866;2023-09-19T01:40:49;4.6;;;3.1;;
28455;SDS011;15682;56.742;38.866;2023-09-19T01:42:48;8.2;;;3.8;;
28455;SDS011;15682;56.742;38.866;2023-09-19T01:44:49;8.9;;;3.5;;
28455;SDS011;15682;56.742;38.866;2023-09-19T01:46:47;6.3;;;3.1;;
28455;SDS011;15682;56.742;38.866;2023-09-19T01:48:49;7.6;;;3.1;;
28455;SDS011;15682;56.742;38.866;2023-09-19T01:50:49;6.9;;;2.7;;
28455;SDS011;15682;56.742;38.866;2023-09-19T01:52:49;7.9;;;2.8;;
28455;SDS011;15682;56.742;38.866;2023-09-19T01:54:49;7.8;;;2.8;;
28455;SDS011;15682;56.742;38.866;2023-09-19T01:56:50;6.4;;;2.6;;
28455;SDS011;15682;56.742;38.866;2023-09-19T01:58:48;7.3;;;2.7;;
28455;SDS011;15682;56.742;38.866;2023-09-19T02:00:48;5.3;;;2.7;;
28455;SDS011;15682;56.742;38.866;2023-09-19T02:02:47;8.5;;;2.8;;
28455;SDS011;15682;56.742;38.866;2023-09-19T02:04:48;12.1;;;2.6;;
28455;SDS011;15682;56.742;38.866;2023-09-19T02:06:47;5.8;;;2.4;;
28455;SDS011;15682;56.742;38.866;2023-09-19T02:08:48;8.0;;;2.7;;
28455;SDS011;15682;56.742;38.866;2023-09-19T02:10:48;6.2;;;2.5;;
28455;SDS011;15682;56.742;38.866;2023-09-19T02:12:48;14.3;;;2.7;;
28455;SDS011;15682;56.742;38.866;2023-09-19T02:14:48;11.8;;;2.8;;
28455;SDS011;15682;56.742;38.866;2023-09-19T02:16:48;10.6;;;2.8;;
28455;SDS011;15682;56.742;38.866;2023-09-19T02:18:48;9.8;;;2.8;;
28455;SDS011;15682;56.742;38.866;2023-09-19T02:20:48;9.1;;;2.7;;
28455;SDS011;15682;56.742;38.866;2023-09-19T02:22:48;9.6;;;3.0;;
28455;SDS011;15682;56.742;38.866;2023-09-19T02:24:48;6.1;;;2.3;;
28455;SDS011;15682;56.742;38.866;2023-09-19T02:26:48;6.2;;;2.6;;
28455;SDS011;15682;56.742;38.866;2023-09-19T02:28:48;10.8;;;2.7;;
28455;SDS011;15682;56.742;38.866;2023-09-19T02:30:48;11.6;;;2.7;;
28455;SDS011;15682;56.742;38.866;2023-09-19T02:32:48;12.7;;;3.0;;
28455;SDS011;15682;56.742;38.866;2023-09-19T02:34:49;8.8;;;2.6;;
28455;SDS011;15682;56.742;38.866;2023-09-19T02:36:48;8.3;;;2.5;;
28455;SDS011;15682;56.742;38.866;2023-09-19T02:38:49;8.6;;;2.3;;
28455;SDS011;15682;56.742;38.866;2023-09-19T02:40:49;8.0;;;2.2;;
28455;SDS011;15682;56.742;38.866;2023-09-19T02:42:49;4.7;;;2.2;;
28455;SDS011;15682;56.742;38.866;2023-09-19T02:44:49;6.8;;;2.1;;
28455;SDS011;15682;56.742;38.866;2023-09-19T02:46:49;7.3;;;2.3;;
28455;SDS011;15682;56.742;38.866;2023-09-19T02:48:49;10.0;;;2.4;;
28455;SDS011;15682;56.742;38.866;2023-09-19T02:50:49;12.6;;;2.2;;
28455;SDS011;15682;56.742;38.866;2023-09-19T02:52:49;11.0;;;2.0;;
28455;SDS011;15682;56.742;38.866;2023-09-19T02:54:49;8.0;;;2.2;;
28455;SDS011;15682;56.742;38.866;2023-09-19T02:56:49;3.7;;;1.8;;
28455;SDS011;15682;56.742;38.866;2023-09-19T02:58:49;6.8;;;1.9;;
28455;SDS011;15682;56.742;38.866;2023-09-19T03:00:49;5.4;;;2.0;;
28455;SDS011;15682;56.742;38.866;2023-09-19T03:02:49;10.5;;;2.3;;
28455;SDS011;15682;56.742;38.866;2023-09-19T03:04:49;7.9;;;2.1;;
28455;SDS011;15682;56.742;38.866;2023-09-19T03:06:49;8.1;;;1.9;;
28455;SDS011;15682;56.742;38.866;2023-09-19T03:08:49;9.2;;;2.3;;
28455;SDS011;15682;56.742;38.866;2023-09-19T03:10:49;6.9;;;1.8;;
28455;SDS011;15682;56.742;38.866;2023-09-19T03:12:49;8.1;;;2.2;;
28455;SDS011;15682;56.742;38.866;2023-09-19T03:14:49;7.5;;;1.9;;
28455;SDS011;15682;56.742;38.866;2023-09-19T03:16:49;8.5;;;2.0;;
28455;SDS011;15682;56.742;38.866;2023-09-19T03:18:49;8.3;;;2.3;;
28455;SDS011;15682;56.742;38.866;2023-09-19T03:20:52;6.5;;;2.2;;
28455;SDS011;15682;56.742;38.866;2023-09-19T03:22:50;6.1;;;2.4;;
28455;SDS011;15682;56.742;38.866;2023-09-19T03:24:49;9.7;;;3.5;;
28455;SDS011;15682;56.742;38.866;2023-09-19T03:26:49;8.9;;;4.1;;
28455;SDS011;15682;56.742;38.866;2023-09-19T03:28:49;12.9;;;4.2;;
28455;SDS011;15682;56.742;38.866;2023-09-19T03:30:58;8.0;;;3.2;;
28455;SDS011;15682;56.742;38.866;2023-09-19T03:32:50;11.1;;;2.6;;
28455;SDS011;15682;56.742;38.866;2023-09-19T03:34:50;6.6;;;2.3;;
28455;SDS011;15682;56.742;38.866;2023-09-19T03:36:50;6.1;;;2.5;;
28455;SDS011;15682;56.742;38.866;2023-09-19T03:38:50;9.0;;;2.3;;
28455;SDS011;15682;56.742;38.866;2023-09-19T03:40:50;9.2;;;2.3;;
28455;SDS011;15682;56.742;38.866;2023-09-19T03:42:50;7.3;;;2.7;;
28455;SDS011;15682;56.742;38.866;2023-09-19T03:44:50;6.3;;;3.1;;
28455;SDS011;15682;56.742;38.866;2023-09-19T03:46:50;6.7;;;2.9;;
28455;SDS011;15682;56.742;38.866;2023-09-19T03:48:50;7.3;;;2.4;;
28455;SDS011;15682;56.742;38.866;2023-09-19T03:50:50;5.9;;;2.4;;
28455;SDS011;15682;56.742;38.866;2023-09-19T03:52:50;4.5;;;2.4;;
28455;SDS011;15682;56.742;38.866;2023-09-19T03:54:50;7.0;;;3.0;;
28455;SDS011;15682;56.742;38.866;2023-09-19T03:56:50;11.1;;;3.5;;
28455;SDS011;15682;56.742;38.866;2023-09-19T03:58:50;7.8;;;3.4;;
28455;SDS011;15682;56.742;38.866;2023-09-19T04:00:50;9.2;;;3.3;;
28455;SDS011;15682;56.742;38.866;2023-09-19T04:02:51;11.0;;;2.8;;
28455;SDS011;15682;56.742;38.866;2023-09-19T04:04:50;9.7;;;3.2;;
28455;SDS011;15682;56.742;38.866;2023-09-19T04:06:50;10.1;;;3.2;;
28455;SDS011;15682;56.742;38.866;2023-09-19T04:08:50;7.2;;;2.6;;
28455;SDS011;15682;56.742;38.866;2023-09-19T04:10:50;9.3;;;2.8;;
28455;SDS011;15682;56.742;38.866;2023-09-19T04:12:51;8.8;;;2.8;;
28455;SDS011;15682;56.742;38.866;2023-09-19T04:14:51;12.2;;;4.6;;
28455;SDS011;15682;56.742;38.866;2023-09-19T04:16:51;19.6;;;11.6;;
28455;SDS011;15682;56.742;38.866;2023-09-19T04:18:51;22.1;;;12.9;;
28455;SDS011;15682;56.742;38.866;2023-09-19T04:20:51;17.9;;;9.7;;
28455;SDS011;15682;56.742;38.866;2023-09-19T04:22:51;16.4;;;7.8;;
28455;SDS011;15682;56.742;38.866;2023-09-19T04:24:51;12.8;;;6.3;;
28455;SDS011;15682;56.742;38.866;2023-09-19T04:26:51;13.0;;;5.5;;
28455;SDS011;15682;56.742;38.866;2023-09-19T04:28:52;12.8;;;5.1;;
28455;SDS011;15682;56.742;38.866;2023-09-19T04:30:52;11.4;;;4.5;;
28455;SDS011;15682;56.742;38.866;2023-09-19T04:32:52;8.2;;;4.0;;
28455;SDS011;15682;56.742;38.866;2023-09-19T04:34:52;17.5;;;3.8;;
28455;SDS011;15682;56.742;38.866;2023-09-19T04:36:52;15.1;;;4.2;;
28455;SDS011;15682;56.742;38.866;2023-09-19T04:38:52;14.5;;;4.4;;
28455;SDS011;15682;56.742;38.866;2023-09-19T04:40:56;12.1;;;4.0;;
28455;SDS011;15682;56.742;38.866;2023-09-19T04:42:53;13.0;;;4.5;;
28455;SDS011;15682;56.742;38.866;2023-09-19T04:44:53;8.6;;;3.7;;
28455;SDS011;15682;56.742;38.866;2023-09-19T04:46:53;13.1;;;4.0;;
28455;SDS011;15682;56.742;38.866;2023-09-19T04:48:53;12.8;;;4.0;;
28455;SDS011;15682;56.742;38.866;2023-09-19T04:50:53;11.1;;;3.4;;
28455;SDS011;15682;56.742;38.866;2023-09-19T04:52:53;18.0;;;4.1;;
28455;SDS011;15682;56.742;38.866;2023-09-19T04:54:53;19.1;;;4.2;;
28455;SDS011;15682;56.742;38.866;2023-09-19T04:56:53;13.8;;;3.5;;
28455;SDS011;15682;56.742;38.866;2023-09-19T04:58:53;22.8;;;3.7;;
28455;SDS011;15682;56.742;38.866;2023-09-19T05:00:54;9.8;;;3.4;;
28455;SDS011;15682;56.742;38.866;2023-09-19T05:02:55;9.4;;;3.3;;
28455;SDS011;15682;56.742;38.866;2023-09-19T05:04:54;10.8;;;3.5;;
28455;SDS011;15682;56.742;38.866;2023-09-19T05:06:54;7.7;;;3.3;;
28455;SDS011;15682;56.742;38.866;2023-09-19T05:08:54;8.3;;;3.2;;
28455;SDS011;15682;56.742;38.866;2023-09-19T05:10:54;9.0;;;3.0;;
28455;SDS011;15682;56.742;38.866;2023-09-19T05:12:54;7.5;;;3.2;;
28455;SDS011;15682;56.742;38.866;2023-09-19T05:14:54;14.6;;;3.3;;
28455;SDS011;15682;56.742;38.866;2023-09-19T05:16:55;13.8;;;3.4;;
28455;SDS011;15682;56.742;38.866;2023-09-19T05:18:55;10.5;;;3.6;;
28455;SDS011;15682;56.742;38.866;2023-09-19T05:20:55;8.4;;;3.6;;
28455;SDS011;15682;56.742;38.866;2023-09-19T05:22:58;7.9;;;3.7;;
28455;SDS011;15682;56.742;38.866;2023-09-19T05:24:55;12.3;;;4.0;;
28455;SDS011;15682;56.742;38.866;2023-09-19T05:26:55;10.5;;;3.6;;
28455;SDS011;15682;56.742;38.866;2023-09-19T05:28:55;8.0;;;3.2;;
28455;SDS011;15682;56.742;38.866;2023-09-19T05:30:56;7.0;;;3.2;;
28455;SDS011;15682;56.742;38.866;2023-09-19T05:32:56;10.2;;;3.1;;
28455;SDS011;15682;56.742;38.866;2023-09-19T05:34:56;8.4;;;3.2;;
28455;SDS011;15682;56.742;38.866;2023-09-19T05:36:56;16.1;;;4.1;;
28455;SDS011;15682;56.742;38.866;2023-09-19T05:38:56;10.0;;;3.5;;
28455;SDS011;15682;56.742;38.866;2023-09-19T05:40:56;21.2;;;4.0;;
28455;SDS011;15682;56.742;38.866;2023-09-19T05:42:57;11.6;;;3.2;;
28455;SDS011;15682;56.742;38.866;2023-09-19T05:44:57;8.5;;;3.1;;
28455;SDS011;15682;56.742;38.866;2023-09-19T05:46:57;8.4;;;3.3;;
28455;SDS011;15682;56.742;38.866;2023-09-19T05:48:57;9.2;;;3.0;;
28455;SDS011;15682;56.742;38.866;2023-09-19T05:50:57;8.6;;;2.9;;
28455;SDS011;15682;56.742;38.866;2023-09-19T05:52:58;7.3;;;3.1;;
28455;SDS011;15682;56.742;38.866;2023-09-19T05:54:58;6.8;;;2.9;;
28455;SDS011;15682;56.742;38.866;2023-09-19T05:56:58;6.0;;;2.5;;
28455;SDS011;15682;56.742;38.866;2023-09-19T05:58:58;6.1;;;2.6;;
28455;SDS011;15682;56.742;38.866;2023-09-19T06:00:58;23.7;;;6.2;;
28455;SDS011;15682;56.742;38.866;2023-09-19T06:02:59;10.6;;;2.9;;
28455;SDS011;15682;56.742;38.866;2023-09-19T06:04:59;22.1;;;4.5;;
28455;SDS011;15682;56.742;38.866;2023-09-19T06:06:59;12.4;;;4.8;;
28455;SDS011;15682;56.742;38.866;2023-09-19T06:08:59;9.6;;;2.9;;
28455;SDS011;15682;56.742;38.866;2023-09-19T06:10:59;10.6;;;3.1;;
28455;SDS011;15682;56.742;38.866;2023-09-19T06:13:00;10.1;;;2.7;;
28455;SDS011;15682;56.742;38.866;2023-09-19T06:15:00;15.3;;;3.3;;
28455;SDS011;15682;56.742;38.866;2023-09-19T06:17:00;5.3;;;2.1;;
28455;SDS011;15682;56.742;38.866;2023-09-19T06:19:00;6.9;;;2.0;;
28455;SDS011;15682;56.742;38.866;2023-09-19T06:21:00;5.5;;;2.1;;
28455;SDS011;15682;56.742;38.866;2023-09-19T06:23:01;11.5;;;2.5;;
28455;SDS011;15682;56.742;38.866;2023-09-19T06:25:01;6.0;;;2.3;;
28455;SDS011;15682;56.742;38.866;2023-09-19T06:27:01;6.0;;;2.6;;
28455;SDS011;15682;56.742;38.866;2023-09-19T06:29:01;5.1;;;1.8;;
28455;SDS011;15682;56.742;38.866;2023-09-19T06:31:02;7.8;;;2.3;;
28455;SDS011;15682;56.742;38.866;2023-09-19T06:33:02;7.2;;;2.1;;
28455;SDS011;15682;56.742;38.866;2023-09-19T06:35:02;9.4;;;2.2;;
28455;SDS011;15682;56.742;38.866;2023-09-19T06:37:02;4.7;;;2.0;;
28455;SDS011;15682;56.742;38.866;2023-09-19T06:39:03;14.3;;;2.1;;
28455;SDS011;15682;56.742;38.866;2023-09-19T06:41:03;6.1;;;2.2;;
28455;SDS011;15682;56.742;38.866;2023-09-19T06:43:03;6.7;;;2.0;;
28455;SDS011;15682;56.742;38.866;2023-09-19T06:45:04;5.9;;;1.9;;
28455;SDS011;15682;56.742;38.866;2023-09-19T06:47:04;5.8;;;2.0;;
28455;SDS011;15682;56.742;38.866;2023-09-19T06:49:04;4.4;;;1.6;;
28455;SDS011;15682;56.742;38.866;2023-09-19T06:51:04;2.7;;;1.6;;
28455;SDS011;15682;56.742;38.866;2023-09-19T06:53:04;6.7;;;1.8;;
28455;SDS011;15682;56.742;38.866;2023-09-19T06:55:05;9.1;;;2.1;;
28455;SDS011;15682;56.742;38.866;2023-09-19T06:57:05;6.2;;;2.1;;
28455;SDS011;15682;56.742;38.866;2023-09-19T06:59:05;6.0;;;1.6;;
28455;SDS011;15682;56.742;38.866;2023-09-19T07:01:05;10.4;;;1.9;;
28455;SDS011;15682;56.742;38.866;2023-09-19T07:03:06;9.4;;;1.6;;
28455;SDS011;15682;56.742;38.866;2023-09-19T07:05:06;5.9;;;1.5;;
28455;SDS011;15682;56.742;38.866;2023-09-19T07:07:07;4.1;;;1.5;;
28455;SDS011;15682;56.742;38.866;2023-09-19T07:09:06;10.9;;;1.9;;
28455;SDS011;15682;56.742;38.866;2023-09-19T07:11:07;5.3;;;1.7;;
28455;SDS011;15682;56.742;38.866;2023-09-19T07:13:07;2.6;;;1.5;;
28455;SDS011;15682;56.742;38.866;2023-09-19T07:15:07;5.2;;;1.4;;
28455;SDS011;15682;56.742;38.866;2023-09-19T07:17:08;3.4;;;1.6;;
28455;SDS011;15682;56.742;38.866;2023-09-19T07:19:08;7.7;;;1.6;;
28455;SDS011;15682;56.742;38.866;2023-09-19T07:21:08;9.8;;;1.9;;
28455;SDS011;15682;56.742;38.866;2023-09-19T07:23:08;5.9;;;1.6;;
28455;SDS011;15682;56.742;38.866;2023-09-19T07:25:09;11.6;;;1.6;;
28455;SDS011;15682;56.742;38.866;2023-09-19T07:27:09;3.7;;;1.4;;
28455;SDS011;15682;56.742;38.866;2023-09-19T07:29:09;4.3;;;1.3;;
28455;SDS011;15682;56.742;38.866;2023-09-19T07:31:10;50.2;;;2.8;;
28455;SDS011;15682;56.742;38.866;2023-09-19T07:33:10;6.3;;;1.3;;
28455;SDS011;15682;56.742;38.866;2023-09-19T07:35:10;14.5;;;1.6;;
28455;SDS011;15682;56.742;38.866;2023-09-19T07:37:11;2.0;;;1.0;;
28455;SDS011;15682;56.742;38.866;2023-09-19T07:39:11;7.1;;;1.2;;
28455;SDS011;15682;56.742;38.866;2023-09-19T07:41:11;6.9;;;1.2;;
28455;SDS011;15682;56.742;38.866;2023-09-19T07:43:11;3.0;;;1.3;;
28455;SDS011;15682;56.742;38.866;2023-09-19T07:45:12;4.2;;;1.2;;
28455;SDS011;15682;56.742;38.866;2023-09-19T07:47:13;6.0;;;1.3;;
28455;SDS011;15682;56.742;38.866;2023-09-19T07:49:12;8.8;;;1.1;;
28455;SDS011;15682;56.742;38.866;2023-09-19T07:51:13;7.3;;;1.7;;
28455;SDS011;15682;56.742;38.866;2023-09-19T07:53:13;5.6;;;1.6;;
28455;SDS011;15682;56.742;38.866;2023-09-19T07:55:13;6.3;;;1.4;;
28455;SDS011;15682;56.742;38.866;2023-09-19T07:57:13;3.3;;;1.1;;
28455;SDS011;15682;56.742;38.866;2023-09-19T07:59:14;5.5;;;1.2;;
28455;SDS011;15682;56.742;38.866;2023-09-19T08:01:14;5.9;;;1.4;;
28455;SDS011;15682;56.742;38.866;2023-09-19T08:03:14;4.1;;;1.2;;
28455;SDS011;15682;56.742;38.866;2023-09-19T08:05:15;7.6;;;1.3;;
28455;SDS011;15682;56.742;38.866;2023-09-19T08:07:15;5.6;;;1.2;;
28455;SDS011;15682;56.742;38.866;2023-09-19T08:09:15;10.5;;;1.2;;
28455;SDS011;15682;56.742;38.866;2023-09-19T08:11:16;9.6;;;1.3;;
28455;SDS011;15682;56.742;38.866;2023-09-19T08:13:16;6.9;;;1.4;;
28455;SDS011;15682;56.742;38.866;2023-09-19T08:15:17;8.2;;;1.2;;
28455;SDS011;15682;56.742;38.866;2023-09-19T08:17:17;7.4;;;1.4;;
28455;SDS011;15682;56.742;38.866;2023-09-19T08:19:17;3.4;;;1.1;;
28455;SDS011;15682;56.742;38.866;2023-09-19T08:21:17;7.8;;;1.5;;
28455;SDS011;15682;56.742;38.866;2023-09-19T08:23:18;3.4;;;1.2;;
28455;SDS011;15682;56.742;38.866;2023-09-19T08:25:18;9.6;;;1.5;;
28455;SDS011;15682;56.742;38.866;2023-09-19T08:27:18;5.4;;;1.6;;
28455;SDS011;15682;56.742;38.866;2023-09-19T08:29:18;5.6;;;1.3;;
28455;SDS011;15682;56.742;38.866;2023-09-19T08:31:19;6.5;;;1.7;;
28455;SDS011;15682;56.742;38.866;2023-09-19T08:33:19;8.1;;;2.2;;
28455;SDS011;15682;56.742;38.866;2023-09-19T08:35:19;9.4;;;2.0;;
28455;SDS011;15682;56.742;38.866;2023-09-19T08:37:20;2.9;;;1.4;;
28455;SDS011;15682;56.742;38.866;2023-09-19T08:39:20;2.9;;;1.3;;
28455;SDS011;15682;56.742;38.866;2023-09-19T08:41:20;9.7;;;1.5;;
28455;SDS011;15682;56.742;38.866;2023-09-19T08:43:21;7.1;;;1.4;;
28455;SDS011;15682;56.742;38.866;2023-09-19T08:45:21;8.7;;;1.6;;
28455;SDS011;15682;56.742;38.866;2023-09-19T08:47:24;6.3;;;1.3;;
28455;SDS011;15682;56.742;38.866;2023-09-19T08:49:24;14.5;;;1.7;;
28455;SDS011;15682;56.742;38.866;2023-09-19T08:51:24;5.0;;;1.3;;
28455;SDS011;15682;56.742;38.866;2023-09-19T08:53:26;5.0;;;1.4;;
28455;SDS011;15682;56.742;38.866;2023-09-19T08:55:23;9.5;;;1.5;;
28455;SDS011;15682;56.742;38.866;2023-09-19T08:57:23;10.3;;;1.7;;
28455;SDS011;15682;56.742;38.866;2023-09-19T08:59:23;9.5;;;1.7;;
28455;SDS011;15682;56.742;38.866;2023-09-19T09:01:24;10.6;;;1.5;;
28455;SDS011;15682;56.742;38.866;2023-09-19T09:03:24;7.2;;;1.6;;
28455;SDS011;15682;56.742;38.866;2023-09-19T09:05:24;3.9;;;1.3;;
28455;SDS011;15682;56.742;38.866;2023-09-19T09:07:25;6.2;;;1.2;;
28455;SDS011;15682;56.742;38.866;2023-09-19T09:09:25;9.0;;;1.2;;
28455;SDS011;15682;56.742;38.866;2023-09-19T09:11:25;5.0;;;1.4;;
28455;SDS011;15682;56.742;38.866;2023-09-19T09:13:25;3.8;;;1.4;;
28455;SDS011;15682;56.742;38.866;2023-09-19T09:15:26;11.9;;;1.6;;
28455;SDS011;15682;56.742;38.866;2023-09-19T09:17:26;4.5;;;1.3;;
28455;SDS011;15682;56.742;38.866;2023-09-19T09:19:26;11.7;;;1.7;;
28455;SDS011;15682;56.742;38.866;2023-09-19T09:21:27;8.4;;;1.4;;
28455;SDS011;15682;56.742;38.866;2023-09-19T09:23:27;9.5;;;1.5;;
28455;SDS011;15682;56.742;38.866;2023-09-19T09:27:28;8.5;;;1.3;;
28455;SDS011;15682;56.742;38.866;2023-09-19T09:31:28;31.0;;;2.2;;
28455;SDS011;15682;56.742;38.866;2023-09-19T09:33:29;7.5;;;1.8;;
28455;SDS011;15682;56.742;38.866;2023-09-19T09:35:29;16.1;;;4.7;;
28455;SDS011;15682;56.742;38.866;2023-09-19T09:37:29;4.2;;;1.7;;
28455;SDS011;15682;56.742;38.866;2023-09-19T09:39:30;6.6;;;1.5;;
28455;SDS011;15682;56.742;38.866;2023-09-19T09:41:35;5.8;;;1.4;;
28455;SDS011;15682;56.742;38.866;2023-09-19T09:43:31;9.0;;;2.0;;
28455;SDS011;15682;56.742;38.866;2023-09-19T09:45:31;10.8;;;1.9;;
28455;SDS011;15682;56.742;38.866;2023-09-19T09:47:40;20.9;;;1.8;;
28455;SDS011;15682;56.742;38.866;2023-09-19T09:49:31;8.5;;;1.6;;
28455;SDS011;15682;56.742;38.866;2023-09-19T09:51:32;21.6;;;1.9;;
28455;SDS011;15682;56.742;38.866;2023-09-19T09:53:32;10.7;;;1.6;;
28455;SDS011;15682;56.742;38.866;2023-09-19T09:57:33;10.0;;;1.8;;
28455;SDS011;15682;56.742;38.866;2023-09-19T10:01:45;8.2;;;1.5;;
28455;SDS011;15682;56.742;38.866;2023-09-19T10:03:34;13.0;;;1.6;;
28455;SDS011;15682;56.742;38.866;2023-09-19T10:05:34;10.0;;;1.6;;
28455;SDS011;15682;56.742;38.866;2023-09-19T10:07:34;7.0;;;1.4;;
28455;SDS011;15682;56.742;38.866;2023-09-19T10:09:44;10.1;;;1.4;;
28455;SDS011;15682;56.742;38.866;2023-09-19T10:11:35;4.7;;;1.3;;
28455;SDS011;15682;56.742;38.866;2023-09-19T10:13:35;7.2;;;1.4;;
28455;SDS011;15682;56.742;38.866;2023-09-19T10:15:35;6.5;;;1.6;;
28455;SDS011;15682;56.742;38.866;2023-09-19T10:17:36;15.1;;;1.7;;
28455;SDS011;15682;56.742;38.866;2023-09-19T10:19:36;3.0;;;1.4;;
28455;SDS011;15682;56.742;38.866;2023-09-19T10:21:36;7.2;;;1.8;;
28455;SDS011;15682;56.742;38.866;2023-09-19T10:23:37;7.0;;;2.0;;
28455;SDS011;15682;56.742;38.866;2023-09-19T10:25:37;10.1;;;1.7;;
28455;SDS011;15682;56.742;38.866;2023-09-19T10:27:37;33.6;;;2.1;;
28455;SDS011;15682;56.742;38.866;2023-09-19T10:29:39;6.2;;;1.6;;
28455;SDS011;15682;56.742;38.866;2023-09-19T10:31:38;6.4;;;1.6;;
28455;SDS011;15682;56.742;38.866;2023-09-19T10:33:38;9.9;;;1.5;;
28455;SDS011;15682;56.742;38.866;2023-09-19T10:35:39;9.0;;;1.6;;
28455;SDS011;15682;56.742;38.866;2023-09-19T10:37:40;5.0;;;1.7;;
28455;SDS011;15682;56.742;38.866;2023-09-19T10:39:39;6.2;;;1.8;;
28455;SDS011;15682;56.742;38.866;2023-09-19T10:41:40;9.9;;;1.8;;
28455;SDS011;15682;56.742;38.866;2023-09-19T10:43:40;12.6;;;1.6;;
28455;SDS011;15682;56.742;38.866;2023-09-19T10:45:40;5.6;;;1.5;;
28455;SDS011;15682;56.742;38.866;2023-09-19T10:47:41;8.7;;;1.7;;
28455;SDS011;15682;56.742;38.866;2023-09-19T10:49:43;8.9;;;1.8;;
28455;SDS011;15682;56.742;38.866;2023-09-19T10:51:41;12.7;;;1.6;;
28455;SDS011;15682;56.742;38.866;2023-09-19T10:53:44;6.2;;;1.6;;
28455;SDS011;15682;56.742;38.866;2023-09-19T10:55:48;6.0;;;1.6;;
28455;SDS011;15682;56.742;38.866;2023-09-19T10:57:43;4.6;;;1.6;;
28455;SDS011;15682;56.742;38.866;2023-09-19T10:59:48;6.5;;;1.7;;
28455;SDS011;15682;56.742;38.866;2023-09-19T11:01:43;7.1;;;1.6;;
28455;SDS011;15682;56.742;38.866;2023-09-19T11:03:43;9.1;;;1.5;;
28455;SDS011;15682;56.742;38.866;2023-09-19T11:05:43;27.8;;;2.5;;
28455;SDS011;15682;56.742;38.866;2023-09-19T11:07:56;7.8;;;1.7;;
28455;SDS011;15682;56.742;38.866;2023-09-19T11:09:45;25.6;;;2.2;;
28455;SDS011;15682;56.742;38.866;2023-09-19T11:11:46;8.0;;;2.0;;
28455;SDS011;15682;56.742;38.866;2023-09-19T11:13:45;12.6;;;2.3;;
28455;SDS011;15682;56.742;38.866;2023-09-19T11:17:45;7.5;;;1.9;;
28455;SDS011;15682;56.742;38.866;2023-09-19T11:21:53;7.9;;;1.8;;
28455;SDS011;15682;56.742;38.866;2023-09-19T11:23:47;14.1;;;2.4;;
28455;SDS011;15682;56.742;38.866;2023-09-19T11:25:47;12.0;;;2.3;;
28455;SDS011;15682;56.742;38.866;2023-09-19T11:29:47;6.0;;;2.0;;
28455;SDS011;15682;56.742;38.866;2023-09-19T11:31:47;9.1;;;2.0;;
28455;SDS011;15682;56.742;38.866;2023-09-19T11:33:48;7.3;;;2.0;;
28455;SDS011;15682;56.742;38.866;2023-09-19T11:41:49;8.1;;;2.2;;
28455;SDS011;15682;56.742;38.866;2023-09-19T11:43:50;4.7;;;2.3;;
28455;SDS011;15682;56.742;38.866;2023-09-19T11:47:50;5.0;;;2.2;;
28455;SDS011;15682;56.742;38.866;2023-09-19T11:49:50;7.1;;;2.3;;
28455;SDS011;15682;56.742;38.866;2023-09-19T11:51:51;9.1;;;2.4;;
28455;SDS011;15682;56.742;38.866;2023-09-19T11:53:51;15.0;;;2.4;;
28455;SDS011;15682;56.742;38.866;2023-09-19T11:55:51;12.8;;;2.2;;
28455;SDS011;15682;56.742;38.866;2023-09-19T11:57:52;12.0;;;2.5;;
28455;SDS011;15682;56.742;38.866;2023-09-19T11:59:52;5.9;;;2.0;;
28455;SDS011;15682;56.742;38.866;2023-09-19T12:01:53;4.6;;;2.0;;
28455;SDS011;15682;56.742;38.866;2023-09-19T12:03:53;21.9;;;3.0;;
28455;SDS011;15682;56.742;38.866;2023-09-19T12:05:53;6.2;;;2.3;;
28455;SDS011;15682;56.742;38.866;2023-09-19T12:07:53;5.7;;;2.4;;
28455;SDS011;15682;56.742;38.866;2023-09-19T12:10:02;6.1;;;2.3;;
28455;SDS011;15682;56.742;38.866;2023-09-19T12:11:54;8.1;;;2.4;;
28455;SDS011;15682;56.742;38.866;2023-09-19T12:13:54;9.8;;;2.4;;
28455;SDS011;15682;56.742;38.866;2023-09-19T12:15:55;6.7;;;2.3;;
28455;SDS011;15682;56.742;38.866;2023-09-19T12:17:55;8.1;;;2.3;;
28455;SDS011;15682;56.742;38.866;2023-09-19T12:19:56;6.9;;;2.3;;
28455;SDS011;15682;56.742;38.866;2023-09-19T12:21:57;7.4;;;2.4;;
28455;SDS011;15682;56.742;38.866;2023-09-19T12:23:57;9.5;;;2.6;;
28455;SDS011;15682;56.742;38.866;2023-09-19T12:25:56;11.7;;;2.7;;
28455;SDS011;15682;56.742;38.866;2023-09-19T12:27:56;13.1;;;3.1;;
28455;SDS011;15682;56.742;38.866;2023-09-19T12:29:56;12.4;;;3.0;;
28455;SDS011;15682;56.742;38.866;2023-09-19T12:31:57;10.4;;;2.8;;
28455;SDS011;15682;56.742;38.866;2023-09-19T12:33:57;11.7;;;2.6;;